createdAt,value
2018-01-12T00:02:11.095Z,138.37
2018-01-12T00:04:38.594Z,153.67
2018-01-12T00:07:06.166Z,138.23
2018-01-12T00:09:33.663Z,123.53
2018-01-12T00:12:01.181Z,175.50
2018-01-12T00:14:28.654Z,192.90
2018-01-12T00:16:56.146Z,140.67
2018-01-12T00:19:23.654Z,171.63
2018-01-12T00:21:51.153Z,173.97
2018-01-12T00:24:18.649Z,167.00
2018-01-12T00:26:46.138Z,171.60
2018-01-12T00:29:13.694Z,166.40
2018-01-12T00:31:41.246Z,171.03
2018-01-12T00:34:08.928Z,164.97
2018-01-12T00:36:36.458Z,167.00
2018-01-12T00:39:04.207Z,189.10
2018-01-12T00:41:31.934Z,156.03
2018-01-12T00:43:59.414Z,185.57
2018-01-12T00:46:26.883Z,149.40
2018-01-12T00:48:54.366Z,165.17
2018-01-12T00:51:21.874Z,177.10
2018-01-12T00:53:49.346Z,151.67
2018-01-12T00:56:16.846Z,138.97
2018-01-12T00:58:44.386Z,148.53
2018-01-12T01:01:11.878Z,121.00
2018-01-12T01:03:39.434Z,152.30
2018-01-12T01:06:06.922Z,132.73
2018-01-12T01:08:34.423Z,157.57
2018-01-12T01:11:01.936Z,171.40
2018-01-12T01:13:29.429Z,172.90
2018-01-12T01:15:56.899Z,155.83
2018-01-12T01:18:24.391Z,161.93
2018-01-12T01:20:51.878Z,149.77
2018-01-12T01:23:19.380Z,165.37
2018-01-12T01:25:47.177Z,182.43
2018-01-12T01:28:14.671Z,182.63
2018-01-12T01:30:42.166Z,159.93
2018-01-12T01:33:09.660Z,153.53
2018-01-12T01:35:37.142Z,166.17
2018-01-12T01:38:04.636Z,172.93
2018-01-12T01:40:32.294Z,174.23
2018-01-12T01:42:59.802Z,150.20
2018-01-12T01:45:27.293Z,146.07
2018-01-12T01:47:54.822Z,165.13
2018-01-12T01:50:22.313Z,145.07
2018-01-12T01:52:49.800Z,162.17
2018-01-12T01:55:17.309Z,165.37
2018-01-12T01:57:44.774Z,158.10
2018-01-12T02:00:12.257Z,162.17
2018-01-12T02:02:39.766Z,165.50
2018-01-12T02:05:07.250Z,158.13
2018-01-12T02:07:34.730Z,173.47
2018-01-12T02:10:02.242Z,158.00
2018-01-12T02:12:29.743Z,143.87
2018-01-12T02:14:57.246Z,159.73
2018-01-12T02:17:24.752Z,143.30
2018-01-12T02:19:52.255Z,176.70
2018-01-12T02:22:19.746Z,170.97
2018-01-12T02:24:47.263Z,177.10
2018-01-12T02:27:14.762Z,148.27
2018-01-12T02:29:42.242Z,156.47
2018-01-12T02:32:09.755Z,157.37
2018-01-12T02:34:37.282Z,180.17
2018-01-12T02:37:04.748Z,164.90
2018-01-12T02:39:32.251Z,175.27
2018-01-12T02:41:59.731Z,165.77
2018-01-12T02:44:27.252Z,138.03
2018-01-12T02:46:54.768Z,153.60
2018-01-12T02:49:22.236Z,140.60
2018-01-12T02:51:49.704Z,171.50
2018-01-12T02:54:17.224Z,132.37
2018-01-12T02:56:44.704Z,163.83
2018-01-12T02:59:12.202Z,152.80
2018-01-12T03:01:39.942Z,98.60
2018-01-12T03:04:07.422Z,139.37
2018-01-12T03:06:34.926Z,122.77
2018-01-12T03:09:02.441Z,128.37
2018-01-12T03:11:29.941Z,161.57
2018-01-12T03:13:57.430Z,159.07
2018-01-12T03:16:24.915Z,168.93
2018-01-12T03:18:52.416Z,160.30
2018-01-12T03:21:19.931Z,155.63
2018-01-12T03:23:47.428Z,125.83
2018-01-12T03:26:14.911Z,129.53
2018-01-12T03:28:42.406Z,119.97
2018-01-12T03:31:09.931Z,146.37
2018-01-12T03:33:37.425Z,133.33
2018-01-12T03:36:04.890Z,138.23
2018-01-12T03:38:32.398Z,173.13
2018-01-12T03:40:59.878Z,163.00
2018-01-12T03:43:27.341Z,155.67
2018-01-12T03:45:54.831Z,153.63
2018-01-12T03:48:22.314Z,197.40
2018-01-12T03:50:49.785Z,169.97
2018-01-12T03:53:17.313Z,123.60
2018-01-12T03:55:44.806Z,171.47
2018-01-12T03:58:12.301Z,166.87
2018-01-12T04:00:39.786Z,163.17
2018-01-12T04:03:07.252Z,110.90
2018-01-12T04:05:34.730Z,167.03
2018-01-12T04:08:02.246Z,185.17
2018-01-12T04:10:29.718Z,108.30
2018-01-12T04:12:57.228Z,167.20
2018-01-12T04:15:24.749Z,182.57
2018-01-12T04:17:52.244Z,165.80
2018-01-12T04:20:19.738Z,164.03
2018-01-12T04:22:47.269Z,180.97
2018-01-12T04:25:14.749Z,134.13
2018-01-12T04:27:42.207Z,214.50
2018-01-12T04:30:09.726Z,201.70
2018-01-12T04:32:37.186Z,209.53
2018-01-12T04:35:04.676Z,202.60
2018-01-12T04:37:32.185Z,155.43
2018-01-12T04:39:59.658Z,139.77
2018-01-12T04:42:27.118Z,195.33
2018-01-12T04:44:54.854Z,199.53
2018-01-12T04:47:22.384Z,125.40
2018-01-12T04:49:49.887Z,181.13
2018-01-12T04:52:17.406Z,186.33
2018-01-12T04:54:44.913Z,178.40
2018-01-12T04:57:12.398Z,169.07
2018-01-12T04:59:39.924Z,185.57
2018-01-12T05:02:07.382Z,179.67
2018-01-12T05:04:34.890Z,165.87
2018-01-12T05:07:02.376Z,188.57
2018-01-12T05:09:29.854Z,140.37
2018-01-12T05:11:57.338Z,128.20
2018-01-12T05:14:24.804Z,153.43
2018-01-12T05:16:52.282Z,180.80
2018-01-12T05:19:19.782Z,153.57
2018-01-12T05:21:47.269Z,155.80
2018-01-12T05:24:14.761Z,154.37
2018-01-12T05:26:42.272Z,159.53
2018-01-12T05:29:09.748Z,157.60
2018-01-12T05:31:37.232Z,124.57
2018-01-12T05:34:04.763Z,111.70
2018-01-12T05:36:32.253Z,130.90
2018-01-12T05:38:59.723Z,140.00
2018-01-12T05:41:27.206Z,116.63
2018-01-12T05:43:54.706Z,121.30
2018-01-12T05:46:22.191Z,135.37
2018-01-12T05:48:49.714Z,121.50
2018-01-12T05:51:17.182Z,83.97
2018-01-12T05:53:44.662Z,87.67
2018-01-12T05:56:12.396Z,114.03
2018-01-12T05:58:39.918Z,112.93
2018-01-12T06:01:19.265Z,77.33
2018-01-12T06:03:58.705Z,121.03
2018-01-12T06:06:26.189Z,110.30
2018-01-12T06:08:53.650Z,75.10
2018-01-12T06:11:21.201Z,100.07
2018-01-12T06:13:48.725Z,112.47
2018-01-12T06:16:16.222Z,133.97
2018-01-12T06:18:43.706Z,121.10
2018-01-12T06:21:11.179Z,76.77
2018-01-12T06:23:38.646Z,102.70
2018-01-12T06:26:06.158Z,97.80
2018-01-12T06:28:33.649Z,106.40
2018-01-12T06:31:01.134Z,100.83
2018-01-12T06:33:28.633Z,98.43
2018-01-12T06:35:56.156Z,102.53
2018-01-12T06:38:23.622Z,64.60
2018-01-12T06:40:51.122Z,109.30
2018-01-12T06:43:18.624Z,107.37
2018-01-12T06:45:46.122Z,83.00
2018-01-12T06:48:13.820Z,87.77
2018-01-12T06:50:41.298Z,82.47
2018-01-12T06:53:08.768Z,69.37
2018-01-12T06:55:36.275Z,90.57
2018-01-12T06:58:03.794Z,81.50
2018-01-12T07:00:31.293Z,85.03
2018-01-12T07:02:58.823Z,79.73
2018-01-12T07:05:26.356Z,72.60
2018-01-12T07:07:53.823Z,48.40
2018-01-12T07:10:21.303Z,73.30
2018-01-12T07:12:48.825Z,77.57
2018-01-12T07:15:16.390Z,71.07
2018-01-12T07:17:43.873Z,60.47
2018-01-12T07:20:23.274Z,69.63
2018-01-12T07:23:02.651Z,38.07
2018-01-12T07:25:30.233Z,53.77
2018-01-12T07:27:57.759Z,61.70
2018-01-12T07:30:25.282Z,44.33
2018-01-12T07:32:52.775Z,69.47
2018-01-12T07:35:20.302Z,67.17
2018-01-12T07:37:47.838Z,64.87
2018-01-12T07:40:15.351Z,62.97
2018-01-12T07:42:42.819Z,61.87
2018-01-12T07:45:10.290Z,71.00
2018-01-12T07:47:37.785Z,66.80
2018-01-12T07:50:05.286Z,59.63
2018-01-12T07:52:32.789Z,64.93
2018-01-12T07:55:00.296Z,64.37
2018-01-12T07:57:27.771Z,50.60
2018-01-12T07:59:55.234Z,44.97
2018-01-12T08:05:24.706Z,62.73
2018-01-12T08:07:52.182Z,48.73
2018-01-12T08:10:19.661Z,57.30
2018-01-12T08:12:47.149Z,60.80
2018-01-12T08:15:14.634Z,66.87
2018-01-12T08:17:42.156Z,66.57
2018-01-12T08:20:09.631Z,55.40
2018-01-12T08:22:37.134Z,46.43
2018-01-12T08:25:04.600Z,56.60
2018-01-12T08:27:32.078Z,74.90
2018-01-12T08:29:59.581Z,77.20
2018-01-12T08:32:27.070Z,69.90
2018-01-12T08:34:54.530Z,68.60
2018-01-12T08:37:22.047Z,73.03
2018-01-12T08:39:49.593Z,66.03
2018-01-12T08:42:17.064Z,59.83
2018-01-12T08:44:44.537Z,58.73
2018-01-12T08:47:12.018Z,59.07
2018-01-12T08:49:39.503Z,64.10
2018-01-12T08:52:07.015Z,54.70
2018-01-12T08:54:34.526Z,64.73
2018-01-12T08:57:02.014Z,60.27
2018-01-12T08:59:29.565Z,69.43
2018-01-12T09:01:57.044Z,65.77
2018-01-12T09:04:24.607Z,82.77
2018-01-12T09:06:52.109Z,38.00
2018-01-12T09:09:19.589Z,66.57
2018-01-12T09:11:47.075Z,50.00
2018-01-12T09:14:26.442Z,64.73
2018-01-12T09:16:53.934Z,68.73
2018-01-12T09:19:33.164Z,82.17
2018-01-12T09:22:00.638Z,71.50
2018-01-12T09:24:28.104Z,60.27
2018-01-12T09:26:55.842Z,70.00
2018-01-12T09:29:23.341Z,85.00
2018-01-12T09:31:51.557Z,57.90
2018-01-12T09:34:31.168Z,69.00
2018-01-12T09:36:58.654Z,69.00
2018-01-12T09:39:38.149Z,70.93
2018-01-12T09:42:05.667Z,67.87
2018-01-12T09:44:33.136Z,82.00
2018-01-12T09:47:12.785Z,81.57
2018-01-12T09:49:47.922Z,71.23
2018-01-12T09:52:15.442Z,74.70
2018-01-12T09:54:42.906Z,72.13
2018-01-12T09:57:10.370Z,77.40
2018-01-12T09:59:43.790Z,82.27
2018-01-12T10:02:11.285Z,85.17
2018-01-12T10:04:38.767Z,80.93
2018-01-12T10:07:17.219Z,88.83
2018-01-12T10:09:48.433Z,79.60
2018-01-12T10:12:15.898Z,76.97
2018-01-12T10:14:43.431Z,71.40
2018-01-12T10:17:10.917Z,65.83
2018-01-12T10:22:42.615Z,83.17
2018-01-12T10:25:10.171Z,70.90
2018-01-12T10:27:37.641Z,55.10
2018-01-12T10:30:24.153Z,75.50
2018-01-12T10:33:03.551Z,67.80
2018-01-12T10:35:31.046Z,68.83
2018-01-12T10:37:58.515Z,75.33
2018-01-12T10:40:47.531Z,72.40
2018-01-12T10:43:15.034Z,56.67
2018-01-12T10:45:54.350Z,65.07
2018-01-12T10:48:33.662Z,44.13
2018-01-12T10:51:12.941Z,64.60
2018-01-12T10:53:40.408Z,79.37
2018-01-12T10:56:07.913Z,59.60
2018-01-12T10:58:35.415Z,69.60
2018-01-12T11:01:09.394Z,67.70
2018-01-12T11:03:36.894Z,63.63
2018-01-12T11:06:04.606Z,74.77
2018-01-12T11:08:32.096Z,82.60
2018-01-12T11:10:59.586Z,64.60
2018-01-12T11:13:27.109Z,70.17
2018-01-12T11:15:54.609Z,89.50
2018-01-12T11:18:22.086Z,58.17
2018-01-12T11:20:49.594Z,71.00
2018-01-12T11:23:17.084Z,67.93
2018-01-12T11:25:44.559Z,77.67
2018-01-12T11:28:12.066Z,72.13
2018-01-12T11:30:39.548Z,58.03
2018-01-12T11:33:07.036Z,57.83
2018-01-12T11:35:34.520Z,62.90
2018-01-12T11:38:02.000Z,70.07
2018-01-12T11:40:29.503Z,43.10
2018-01-12T11:42:56.999Z,58.80
2018-01-12T11:45:24.498Z,45.13
2018-01-12T11:47:52.014Z,65.57
2018-01-12T11:50:19.484Z,68.07
2018-01-12T11:52:47.001Z,81.80
2018-01-12T11:55:14.494Z,80.37
2018-01-12T11:57:41.973Z,66.53
2018-01-12T12:00:09.470Z,77.23
2018-01-12T12:02:37.138Z,76.87
2018-01-12T12:05:04.650Z,62.77
2018-01-12T12:07:32.110Z,42.43
2018-01-12T12:09:59.633Z,67.43
2018-01-12T12:12:27.123Z,87.03
2018-01-12T12:14:54.636Z,66.10
2018-01-12T12:17:22.150Z,58.63
2018-01-12T12:19:49.613Z,61.57
2018-01-12T12:22:17.143Z,66.07
2018-01-12T12:24:44.666Z,72.70
2018-01-12T12:27:12.138Z,80.83
2018-01-12T12:29:39.604Z,66.53
2018-01-12T12:32:07.141Z,67.47
2018-01-12T12:34:34.703Z,78.37
2018-01-12T12:37:02.179Z,63.57
2018-01-12T12:39:29.695Z,79.77
2018-01-12T12:41:57.198Z,78.07
2018-01-12T12:44:24.714Z,83.47
2018-01-12T12:46:52.206Z,80.87
2018-01-12T12:51:53.642Z,74.17
2018-01-12T12:54:21.130Z,70.20
2018-01-12T12:56:48.594Z,67.73
2018-01-12T12:59:16.109Z,76.37
2018-01-12T13:01:43.793Z,69.43
2018-01-12T13:04:11.299Z,71.33
2018-01-12T13:06:38.795Z,76.23
2018-01-12T13:09:06.265Z,67.60
2018-01-12T13:11:33.766Z,48.30
2018-01-12T13:14:01.305Z,62.77
2018-01-12T13:16:28.772Z,64.30
2018-01-12T13:18:56.306Z,74.00
2018-01-12T13:21:23.880Z,52.33
2018-01-12T13:23:51.406Z,86.13
2018-01-12T13:26:18.922Z,62.00
2018-01-12T13:28:46.415Z,59.10
2018-01-12T13:31:13.978Z,71.33
2018-01-12T13:33:41.505Z,62.27
2018-01-12T13:36:08.998Z,74.07
2018-01-12T13:38:36.458Z,59.43
2018-01-12T13:41:04.011Z,76.60
2018-01-12T13:43:31.587Z,56.57
2018-01-12T13:45:59.592Z,85.77
2018-01-12T13:48:27.151Z,74.77
2018-01-12T13:50:54.640Z,71.17
2018-01-12T13:53:22.129Z,76.07
2018-01-12T13:55:49.617Z,93.00
2018-01-12T13:58:17.134Z,80.07
2018-01-12T14:00:44.590Z,59.07
2018-01-12T14:03:12.120Z,76.43
2018-01-12T14:05:39.594Z,60.07
2018-01-12T14:08:07.087Z,72.47
2018-01-12T14:10:34.570Z,76.40
2018-01-12T14:13:02.034Z,88.53
2018-01-12T14:15:29.505Z,84.43
2018-01-12T14:17:57.046Z,80.07
2018-01-12T14:20:24.546Z,76.67
2018-01-12T14:22:52.035Z,73.97
2018-01-12T14:25:19.541Z,70.30
2018-01-12T14:27:47.082Z,82.93
2018-01-12T14:30:14.551Z,69.50
2018-01-12T14:32:42.053Z,64.97
2018-01-12T14:35:09.551Z,65.27
2018-01-12T14:37:37.069Z,72.67
2018-01-12T14:40:04.557Z,78.00
2018-01-12T14:42:32.067Z,79.60
2018-01-12T14:44:59.555Z,78.20
2018-01-12T14:47:27.154Z,63.23
2018-01-12T14:49:55.308Z,74.20
2018-01-12T14:52:22.882Z,70.53
2018-01-12T14:54:50.444Z,64.47
2018-01-12T14:57:17.909Z,68.93
2018-01-12T14:59:45.402Z,70.83
2018-01-12T15:02:12.868Z,81.60
2018-01-12T15:04:40.369Z,77.00
2018-01-12T15:07:08.149Z,84.13
2018-01-12T15:09:35.629Z,73.97
2018-01-12T15:12:03.115Z,69.47
2018-01-12T15:14:30.666Z,86.17
2018-01-12T15:16:58.144Z,71.70
2018-01-12T15:19:25.645Z,73.27
2018-01-12T15:21:53.184Z,79.57
2018-01-12T15:24:20.694Z,85.40
2018-01-12T15:26:48.185Z,87.97
2018-01-12T15:29:15.814Z,76.50
2018-01-12T15:31:43.374Z,101.50
2018-01-12T15:34:10.830Z,95.00
2018-01-12T15:36:38.429Z,83.50
2018-01-12T15:39:05.905Z,84.90
2018-01-12T15:41:33.376Z,85.70
2018-01-12T15:44:00.861Z,89.97
2018-01-12T15:46:28.337Z,72.33
2018-01-12T15:48:55.826Z,103.27
2018-01-12T15:51:23.321Z,100.10
2018-01-12T15:53:50.856Z,92.33
2018-01-12T15:56:18.385Z,94.60
2018-01-12T15:58:45.861Z,93.13
2018-01-12T16:01:13.378Z,53.63
2018-01-12T16:03:40.835Z,106.73
2018-01-12T16:06:08.336Z,103.10
2018-01-12T16:08:36.042Z,95.77
2018-01-12T16:11:03.551Z,104.53
2018-01-12T16:13:31.013Z,115.70
2018-01-12T16:15:58.542Z,127.90
2018-01-12T16:18:26.017Z,100.00
2018-01-12T16:20:53.504Z,117.10
2018-01-12T16:23:20.999Z,95.50
2018-01-12T16:25:48.463Z,109.70
2018-01-12T16:28:15.934Z,103.77
2018-01-12T16:30:43.511Z,107.63
2018-01-12T16:33:11.001Z,94.43
2018-01-12T16:35:38.509Z,100.97
2018-01-12T16:38:06.080Z,117.97
2018-01-12T16:40:33.541Z,105.67
2018-01-12T16:43:01.049Z,106.13
2018-01-12T16:45:28.526Z,101.17
2018-01-12T16:47:56.045Z,115.30
2018-01-12T16:50:23.542Z,103.10
2018-01-12T16:52:51.068Z,108.80
2018-01-12T16:55:18.541Z,97.73
2018-01-12T16:57:46.139Z,107.00
2018-01-12T17:00:13.633Z,118.20
2018-01-12T17:02:41.157Z,94.33
2018-01-12T17:05:08.733Z,90.50
2018-01-12T17:07:36.193Z,101.33
2018-01-12T17:10:03.726Z,86.70
2018-01-12T17:12:31.386Z,90.80
2018-01-12T17:14:58.868Z,83.77
2018-01-12T17:17:26.333Z,84.63
2018-01-12T17:19:53.819Z,78.40
2018-01-12T17:22:21.302Z,101.87
2018-01-12T17:24:48.798Z,84.00
2018-01-12T17:27:16.293Z,71.77
2018-01-12T17:29:43.754Z,81.00
2018-01-12T17:32:11.231Z,83.13
2018-01-12T17:34:38.716Z,58.60
2018-01-12T17:37:06.182Z,73.00
2018-01-12T17:39:34.032Z,70.30
2018-01-12T17:42:01.584Z,83.07
2018-01-12T17:44:29.064Z,89.60
2018-01-12T17:46:56.607Z,112.37
2018-01-12T17:49:24.138Z,89.83
2018-01-12T17:51:51.645Z,73.73
2018-01-12T17:54:19.140Z,81.33
2018-01-12T17:56:46.608Z,85.50
2018-01-12T17:59:14.336Z,86.97
2018-01-12T18:01:42.062Z,86.63
2018-01-12T18:04:09.624Z,79.67
2018-01-12T18:06:37.098Z,79.30
2018-01-12T18:09:04.621Z,79.07
2018-01-12T18:11:32.129Z,78.70
2018-01-12T18:13:59.686Z,81.33
2018-01-12T18:16:27.158Z,88.53
2018-01-12T18:18:55.035Z,77.57
2018-01-12T18:21:22.548Z,79.50
2018-01-12T18:23:50.424Z,71.20
2018-01-12T18:26:17.905Z,75.07
2018-01-12T18:28:45.399Z,90.83
2018-01-12T18:31:12.899Z,83.50
2018-01-12T18:33:40.434Z,87.70
2018-01-12T18:36:07.898Z,80.87
2018-01-12T18:38:35.369Z,72.73
2018-01-12T18:41:03.711Z,77.40
2018-01-12T18:43:31.209Z,74.17
2018-01-12T18:45:59.007Z,73.30
2018-01-12T18:48:26.519Z,96.67
2018-01-12T18:50:54.031Z,81.67
2018-01-12T18:53:22.259Z,88.77
2018-01-12T18:55:49.805Z,86.50
2018-01-12T18:58:17.310Z,91.70
2018-01-12T19:00:44.820Z,97.57
2018-01-12T19:03:12.363Z,85.07
2018-01-12T19:05:39.938Z,87.73
2018-01-12T19:08:07.444Z,90.93
2018-01-12T19:10:34.957Z,93.27
2018-01-12T19:13:02.461Z,76.33
2018-01-12T19:15:29.952Z,98.57
2018-01-12T19:17:57.470Z,107.50
2018-01-12T19:20:24.930Z,97.50
2018-01-12T19:22:52.430Z,82.57
2018-01-12T19:25:19.924Z,82.07
2018-01-12T19:27:47.426Z,93.50
2018-01-12T19:30:14.906Z,88.33
2018-01-12T19:32:42.406Z,90.87
2018-01-12T19:35:09.867Z,91.57
2018-01-12T19:37:37.412Z,87.73
2018-01-12T19:40:04.961Z,116.23
2018-01-12T19:42:32.488Z,94.20
2018-01-12T19:44:59.981Z,104.77
2018-01-12T19:47:27.506Z,89.50
2018-01-12T19:49:55.002Z,99.87
2018-01-12T19:52:22.477Z,106.77
2018-01-12T19:54:49.963Z,124.47
2018-01-12T19:57:17.422Z,89.43
2018-01-12T19:59:44.901Z,124.07
2018-01-12T20:02:12.406Z,121.97
2018-01-12T20:04:39.892Z,120.97
2018-01-12T20:07:07.438Z,110.17
2018-01-12T20:09:34.915Z,117.17
2018-01-12T20:12:02.407Z,127.80
2018-01-12T20:14:29.898Z,114.90
2018-01-12T20:16:57.537Z,127.87
2018-01-12T20:19:25.036Z,104.07
2018-01-12T20:21:52.556Z,102.60
2018-01-12T20:24:20.094Z,112.27
2018-01-12T20:26:47.561Z,104.57
2018-01-12T20:29:15.141Z,126.37
2018-01-12T20:31:42.650Z,106.53
2018-01-12T20:34:10.147Z,99.97
2018-01-12T20:36:37.647Z,111.80
2018-01-12T20:39:05.126Z,107.43
2018-01-12T20:41:32.596Z,104.63
2018-01-12T20:44:00.122Z,86.03
2018-01-12T20:46:27.630Z,81.03
2018-01-12T20:48:55.088Z,112.33
2018-01-12T20:51:22.942Z,107.43
2018-01-12T20:53:50.445Z,139.57
2018-01-12T20:56:17.955Z,125.73
2018-01-12T20:58:45.427Z,126.07
2018-01-12T21:01:12.908Z,126.73
2018-01-12T21:03:40.378Z,100.57
2018-01-12T21:06:07.906Z,130.33
2018-01-12T21:08:35.398Z,173.20
2018-01-12T21:11:02.870Z,145.00
2018-01-12T21:13:30.386Z,152.20
2018-01-12T21:15:57.852Z,83.60
2018-01-12T21:18:25.315Z,94.03
2018-01-12T21:20:52.872Z,110.53
2018-01-12T21:23:20.348Z,104.10
2018-01-12T21:25:47.833Z,93.23
2018-01-12T21:28:15.313Z,85.60
2018-01-12T21:30:43.340Z,117.53
2018-01-12T21:33:10.824Z,101.27
2018-01-12T21:35:38.763Z,100.27
2018-01-12T21:38:06.290Z,150.33
2018-01-12T21:40:33.762Z,123.30
2018-01-12T21:43:01.230Z,95.63
2018-01-12T21:45:28.993Z,87.17
2018-01-12T21:47:56.713Z,108.67
2018-01-12T21:50:24.194Z,151.87
2018-01-12T21:52:51.689Z,149.83
2018-01-12T21:55:19.220Z,121.30
2018-01-12T21:57:49.628Z,127.93
2018-01-12T22:00:17.149Z,112.63
2018-01-12T22:02:45.089Z,245.57
2018-01-12T22:05:12.574Z,136.60
2018-01-12T22:07:40.069Z,148.37
2018-01-12T22:10:07.571Z,105.83
2018-01-12T22:12:35.030Z,103.10
2018-01-12T22:15:03.488Z,122.20
2018-01-12T22:17:30.998Z,132.97
2018-01-12T22:19:58.654Z,121.30
2018-01-12T22:22:26.385Z,119.40
2018-01-12T22:24:53.865Z,89.13
2018-01-12T22:27:21.538Z,125.00
2018-01-12T22:29:49.039Z,104.10
2018-01-12T22:32:16.511Z,121.33
2018-01-12T22:34:44.032Z,91.10
2018-01-12T22:37:11.550Z,110.90
2018-01-12T22:39:39.297Z,98.50
2018-01-12T22:42:06.798Z,94.57
2018-01-12T22:44:34.279Z,99.63
2018-01-12T22:47:01.792Z,126.53
2018-01-12T22:49:29.716Z,138.07
2018-01-12T22:51:57.224Z,104.80
2018-01-12T22:54:24.694Z,107.33
2018-01-12T22:56:52.525Z,93.67
2018-01-12T22:59:20.022Z,123.47
2018-01-12T23:01:48.099Z,111.83
2018-01-12T23:04:15.570Z,97.53
2018-01-12T23:06:43.087Z,231.53
2018-01-12T23:09:10.598Z,95.30
2018-01-12T23:11:38.093Z,137.13
2018-01-12T23:14:05.590Z,113.27
2018-01-12T23:16:33.072Z,98.10
2018-01-12T23:19:00.563Z,141.43
2018-01-12T23:21:28.068Z,284.93
2018-01-12T23:23:55.546Z,125.57
2018-01-12T23:26:23.030Z,103.03
2018-01-12T23:28:50.581Z,115.70
2018-01-12T23:31:18.077Z,125.17
2018-01-12T23:33:45.592Z,105.37
2018-01-12T23:36:13.096Z,98.23
2018-01-12T23:38:40.661Z,105.83
2018-01-12T23:41:08.138Z,125.17
2018-01-12T23:43:35.623Z,94.50
2018-01-12T23:46:03.095Z,105.87
2018-01-12T23:48:30.586Z,112.93
2018-01-12T23:50:58.089Z,113.47
2018-01-12T23:53:25.585Z,94.20
2018-01-12T23:55:53.064Z,94.30
2018-01-12T23:58:20.639Z,113.90
